Perham, MN

11:51 AM CDT on June 03, 2015 (GMT -0500)
SE Perham | | Change Station
CLOSE
Current Station
Personal Weather Station
Location: Perham, MN
Elevation: 1365 ft
Nearby Weather Stations

Elev 1365 ft 46.59 °N, 95.57 °W | Updated 1 minute ago

Overcast
Overcast
64.2 °F
Feels Like 64.2 °F
N
4.9
Wind Variable Wind from WSW
Gusts 8.3 mph

Today
High -- | Low -- °F
--% Chance of Precip.
Yesterday
High -- | Low -- °F
Precip. -- in
5:31 AM 9:09 PM
Full, 99% visible
Pressure 29.81 in
Visibility 7.0 miles
Clouds Overcast 1500 ft
Dew Point 55 °F
Humidity 72%
Rainfall 0.04 in
Snow Depth Not available.
UV 3 out of 12
Pollen 7.10 out of 12
Air Quality Not available.
Flu Activity Sporadic
METAR KADC 031635Z AUTO 19008KT 7SM OVC015 18/16 A2981 RMK AO2 LTG DSNT S

More Conditions Fewer Conditions

Pressure 29.81 in
Visibility 7.0 miles
Clouds Overcast 1500 ft
Dew Point 55 °F
Humidity 72%
Rainfall 0.04 in
Snow Depth Not available.
UV 3 out of 12
Pollen 7.10 out of 12
Air Quality Not available.
Flu Activity Sporadic
METAR KADC 031635Z AUTO 19008KT 7SM OVC015 18/16 A2981 RMK AO2 LTG DSNT S

More Conditions Fewer Conditions

10-Day Weather Forecast

×

Almanac

Astronomy

Jun. 03, 2015 Rise Set
Actual Time
Civil Twilight
Nautical Twilight
Astronomical Twilight
Moon
Length of Visible Light
Length of Day
Tomorrow will be .
, % of the Moon is Illuminated

Today's Extremes

State Highs State Lows

Community

WunderPhotos

Upload Photos

1,826,256 photos uploaded!

WunderBlogs® & News

Nearby

Air Quality

  Air Quality AQ Index Pollutant
Not available.

Snow Depth

Station Depth Elevation

Earthquake Activity

City Distance Mag. Time & Date
Minimum magnitude displayed is 2.5.

Coastal Water Temperatures

Place Temperature

Stations

Nearby Weather Stations

Station Location Temp. Windchill Dew Point Humidity Wind Precip. Elev Updated Type